createdAt,value
2018-12-17T00:01:55.384Z,100719.67
2018-12-17T00:04:22.821Z,100720.14
2018-12-17T00:06:50.289Z,100721.55
2018-12-17T00:09:17.841Z,100724.16
2018-12-17T00:11:45.387Z,100728.55
2018-12-17T00:14:12.862Z,100734.25
2018-12-17T00:16:40.274Z,100728.67
2018-12-17T00:19:07.784Z,100739.59
2018-12-17T00:21:35.205Z,100735.30
2018-12-17T00:24:02.703Z,100733.30
2018-12-17T00:26:30.255Z,100738.52
2018-12-17T00:28:57.715Z,100741.95
2018-12-17T00:31:25.256Z,100735.91
2018-12-17T00:33:52.750Z,100748.34
2018-12-17T00:36:20.186Z,100757.86
2018-12-17T00:38:47.654Z,100753.56
2018-12-17T00:41:15.097Z,100756.17
2018-12-17T00:43:42.523Z,100757.00
2018-12-17T00:46:10.119Z,100759.16
2018-12-17T00:48:37.616Z,100753.81
2018-12-17T00:51:05.023Z,100751.69
2018-12-17T00:53:32.476Z,100759.39
2018-12-17T00:55:59.905Z,100759.39
2018-12-17T00:58:27.337Z,100759.77
2018-12-17T01:00:54.763Z,100754.91
2018-12-17T01:03:22.233Z,100755.37
2018-12-17T01:05:49.661Z,100755.86
2018-12-17T01:08:17.109Z,100754.65
2018-12-17T01:10:44.559Z,100756.91
2018-12-17T01:13:11.973Z,100760.09
2018-12-17T01:15:39.405Z,100762.70
2018-12-17T01:18:06.845Z,100757.95
2018-12-17T01:20:34.323Z,100754.05
2018-12-17T01:23:01.742Z,100757.95
2018-12-17T01:25:29.212Z,100756.55
2018-12-17T01:27:56.655Z,100760.92
2018-12-17T01:30:24.128Z,100755.70
2018-12-17T01:32:51.558Z,100759.26
2018-12-17T01:35:19.167Z,100756.17
2018-12-17T01:37:46.701Z,100755.34
2018-12-17T01:40:14.164Z,100753.69
2018-12-17T01:42:41.600Z,100754.99
2018-12-17T01:45:09.188Z,100763.17
2018-12-17T01:47:36.655Z,100761.05
2018-12-17T01:50:04.990Z,100770.53
2018-12-17T01:55:13.664Z,100756.17
2018-12-17T01:57:41.123Z,100754.64
2018-12-17T02:00:08.683Z,100751.17
2018-12-17T02:02:36.123Z,100753.71
2018-12-17T02:05:03.785Z,100752.97
2018-12-17T02:07:31.256Z,100747.97
2018-12-17T02:09:58.684Z,100747.67
2018-12-17T02:12:26.157Z,100749.63
2018-12-17T02:14:53.592Z,100750.30
2018-12-17T02:17:21.132Z,100754.38
2018-12-17T02:19:48.565Z,100749.80
2018-12-17T02:22:15.993Z,100755.91
2018-12-17T02:24:43.429Z,100751.77
2018-12-17T02:27:10.849Z,100752.48
2018-12-17T02:29:38.362Z,100753.48
2018-12-17T02:32:05.811Z,100754.23
2018-12-17T02:34:33.386Z,100756.42
2018-12-17T02:37:00.874Z,100750.52
2018-12-17T02:39:28.442Z,100756.82
2018-12-17T02:41:55.869Z,100754.83
2018-12-17T02:44:23.465Z,100762.52
2018-12-17T02:46:51.032Z,100757.57
2018-12-17T02:49:18.627Z,100757.00
2018-12-17T02:51:46.042Z,100757.83
2018-12-17T02:54:13.475Z,100762.09
2018-12-17T02:56:40.897Z,100763.27
2018-12-17T02:59:08.327Z,100764.13
2018-12-17T03:01:35.832Z,100769.91
2018-12-17T03:04:03.261Z,100766.13
2018-12-17T03:06:30.696Z,100761.12
2018-12-17T03:08:58.218Z,100759.44
2018-12-17T03:11:25.696Z,100765.73
2018-12-17T03:13:53.143Z,100763.34
2018-12-17T03:16:20.564Z,100765.42
2018-12-17T03:18:47.998Z,100769.66
2018-12-17T03:21:15.460Z,100766.92
2018-12-17T03:23:42.931Z,100767.12
2018-12-17T03:26:10.994Z,100767.34
2018-12-17T03:28:38.767Z,100768.64
2018-12-17T03:31:06.224Z,100771.94
2018-12-17T03:33:33.636Z,100772.14
2018-12-17T03:36:01.236Z,100774.48
2018-12-17T03:38:28.697Z,100780.86
2018-12-17T03:40:56.165Z,100778.88
2018-12-17T03:43:23.611Z,100786.19
2018-12-17T03:45:51.033Z,100787.11
2018-12-17T03:49:39.014Z,100789.41
2018-12-17T03:52:06.484Z,100786.70
2018-12-17T03:54:33.915Z,100788.35
2018-12-17T03:57:01.381Z,100791.42
2018-12-17T03:59:28.791Z,100788.55
2018-12-17T04:01:56.222Z,100780.39
2018-12-17T04:04:23.751Z,100779.56
2018-12-17T04:06:51.208Z,100773.67
2018-12-17T04:09:18.625Z,100778.41
2018-12-17T04:11:46.079Z,100780.80
2018-12-17T04:14:13.511Z,100776.12
2018-12-17T04:16:40.944Z,100772.36
2018-12-17T04:19:08.395Z,100776.14
2018-12-17T04:21:35.854Z,100772.23
2018-12-17T04:24:03.263Z,100776.53
2018-12-17T04:26:30.765Z,100775.11
2018-12-17T04:28:58.191Z,100773.71
2018-12-17T04:31:25.642Z,100776.67
2018-12-17T04:33:53.125Z,100774.16
2018-12-17T04:36:20.577Z,100779.13
2018-12-17T04:38:47.992Z,100786.42
2018-12-17T04:41:15.578Z,100792.79
2018-12-17T04:43:43.082Z,100790.75
2018-12-17T04:46:10.618Z,100797.44
2018-12-17T04:48:38.067Z,100797.94
2018-12-17T04:51:06.761Z,100799.00
2018-12-17T04:53:34.208Z,100803.95
2018-12-17T04:56:01.665Z,100810.10
2018-12-17T04:58:29.134Z,100814.36
2018-12-17T05:00:56.586Z,100818.54
2018-12-17T05:03:24.055Z,100817.74
2018-12-17T05:05:51.505Z,100823.02
2018-12-17T05:08:18.913Z,100831.45
2018-12-17T05:10:46.432Z,100831.25
2018-12-17T05:13:13.961Z,100829.12
2018-12-17T05:15:41.425Z,100835.16
2018-12-17T05:18:08.881Z,100826.75
2018-12-17T05:20:36.357Z,100839.12
2018-12-17T05:23:03.795Z,100833.91
2018-12-17T05:25:31.268Z,100836.52
2018-12-17T05:27:58.705Z,100836.28
2018-12-17T05:30:26.240Z,100837.86
2018-12-17T05:32:53.744Z,100840.73
2018-12-17T05:35:21.197Z,100841.00
2018-12-17T05:37:48.670Z,100849.44
2018-12-17T05:40:16.101Z,100853.70
2018-12-17T05:42:43.557Z,100843.63
2018-12-17T05:45:10.982Z,100847.45
2018-12-17T05:47:38.423Z,100842.80
2018-12-17T05:50:06.157Z,100849.17
2018-12-17T05:52:33.693Z,100851.63
2018-12-17T05:55:01.169Z,100852.78
2018-12-17T05:57:28.617Z,100853.81
2018-12-17T05:59:56.061Z,100855.38
2018-12-17T06:02:23.547Z,100852.78
2018-12-17T06:04:51.031Z,100860.20
2018-12-17T06:07:18.552Z,100860.33
2018-12-17T06:09:45.983Z,100870.39
2018-12-17T06:12:13.459Z,100875.61
2018-12-17T06:14:40.910Z,100876.05
2018-12-17T06:17:08.321Z,100883.16
2018-12-17T06:19:35.748Z,100888.45
2018-12-17T06:22:03.194Z,100882.77
2018-12-17T06:24:30.692Z,100886.94
2018-12-17T06:26:58.165Z,100892.69
2018-12-17T06:29:25.671Z,100891.06
2018-12-17T06:31:53.177Z,100885.17
2018-12-17T06:34:20.650Z,100893.06
2018-12-17T06:36:48.053Z,100893.83
2018-12-17T06:39:15.577Z,100892.83
2018-12-17T06:41:43.004Z,100888.41
2018-12-17T06:44:10.695Z,100897.27
2018-12-17T06:46:38.169Z,100897.08
2018-12-17T06:49:05.615Z,100899.61
2018-12-17T06:51:33.517Z,100898.01
2018-12-17T06:54:01.033Z,100900.41
2018-12-17T06:56:28.501Z,100901.84
2018-12-17T06:58:55.963Z,100905.91
2018-12-17T07:01:23.422Z,100903.20
2018-12-17T07:03:50.869Z,100910.91
2018-12-17T07:06:18.522Z,100916.39
2018-12-17T07:08:45.971Z,100913.78
2018-12-17T07:11:13.391Z,100919.00
2018-12-17T07:13:40.897Z,100915.79
2018-12-17T07:16:08.377Z,100923.17
2018-12-17T07:18:35.860Z,100921.66
2018-12-17T07:21:03.272Z,100926.27
2018-12-17T07:23:30.731Z,100936.62
2018-12-17T07:25:58.181Z,100930.09
2018-12-17T07:28:25.652Z,100935.67
2018-12-17T07:30:53.221Z,100935.20
2018-12-17T07:33:20.640Z,100941.50
2018-12-17T07:35:48.077Z,100939.84
2018-12-17T07:38:15.568Z,100940.08
2018-12-17T07:40:43.000Z,100939.63
2018-12-17T07:43:10.709Z,100952.44
2018-12-17T07:45:38.159Z,100947.12
2018-12-17T07:48:05.801Z,100952.70
2018-12-17T07:50:33.235Z,100956.53
2018-12-17T07:53:00.654Z,100954.05
2018-12-17T07:55:28.079Z,100956.80
2018-12-17T07:57:55.492Z,100960.15
2018-12-17T08:00:22.992Z,100961.69
2018-12-17T08:02:50.463Z,100964.46
2018-12-17T08:05:17.920Z,100970.65
2018-12-17T08:07:45.381Z,100970.78
2018-12-17T08:10:12.821Z,100978.75
2018-12-17T08:12:40.245Z,100973.79
2018-12-17T08:15:07.758Z,100975.23
2018-12-17T08:17:35.201Z,100977.05
2018-12-17T08:20:02.731Z,100977.41
2018-12-17T08:22:30.404Z,100977.66
2018-12-17T08:24:57.826Z,100978.75
2018-12-17T08:27:25.260Z,100982.45
2018-12-17T08:29:52.696Z,100988.28
2018-12-17T08:32:20.268Z,100988.06
2018-12-17T08:34:47.713Z,100995.69
2018-12-17T08:37:15.145Z,100989.76
2018-12-17T08:39:42.628Z,100996.91
2018-12-17T08:42:10.072Z,101002.73
2018-12-17T08:44:37.512Z,101000.73
2018-12-17T08:47:04.954Z,100997.98
2018-12-17T08:49:32.433Z,101008.70
2018-12-17T08:52:00.172Z,101004.30
2018-12-17T08:54:27.657Z,101003.37
2018-12-17T08:56:55.131Z,100997.06
2018-12-17T08:59:22.589Z,101003.02
2018-12-17T09:01:50.133Z,101011.34
2018-12-17T09:04:17.541Z,101005.20
2018-12-17T09:06:44.964Z,101004.23
2018-12-17T09:09:12.515Z,101005.93
2018-12-17T09:11:39.951Z,101015.08
2018-12-17T09:14:07.425Z,101015.08
2018-12-17T09:16:34.864Z,101015.91
2018-12-17T09:19:02.344Z,101018.04
2018-12-17T09:21:29.799Z,101025.75
2018-12-17T09:23:57.229Z,101022.70
2018-12-17T09:26:24.716Z,101027.70
2018-12-17T09:28:52.163Z,101033.53
2018-12-17T09:31:19.622Z,101032.10
2018-12-17T09:33:47.076Z,101035.89
2018-12-17T09:36:14.509Z,101038.29
2018-12-17T09:38:41.986Z,101040.20
2018-12-17T09:41:09.461Z,101045.11
2018-12-17T09:43:36.899Z,101043.93
2018-12-17T09:46:04.377Z,101046.19
2018-12-17T09:48:31.799Z,101044.66
2018-12-17T09:50:59.296Z,101051.20
2018-12-17T09:53:26.733Z,101057.73
2018-12-17T09:55:54.187Z,101056.91
2018-12-17T09:58:21.632Z,101058.34
2018-12-17T10:00:49.124Z,101058.82
2018-12-17T10:03:16.548Z,101057.95
2018-12-17T10:05:43.969Z,101060.13
2018-12-17T10:08:11.496Z,101059.05
2018-12-17T10:10:38.920Z,101051.45
2018-12-17T10:13:06.403Z,101064.30
2018-12-17T10:15:33.833Z,101060.02
2018-12-17T10:18:01.416Z,101061.58
2018-12-17T10:20:28.826Z,101054.47
2018-12-17T10:22:56.328Z,101054.47
2018-12-17T10:25:23.769Z,101060.53
2018-12-17T10:27:51.205Z,101056.73
2018-12-17T10:30:18.700Z,101053.53
2018-12-17T10:32:46.117Z,101055.44
2018-12-17T10:35:13.622Z,101059.01
2018-12-17T10:37:41.026Z,101052.97
2018-12-17T10:40:09.150Z,101052.61
2018-12-17T10:42:36.575Z,101050.83
2018-12-17T10:45:05.176Z,101051.91
2018-12-17T10:47:32.599Z,101052.27
2018-12-17T10:50:00.093Z,101051.67
2018-12-17T10:52:27.519Z,101052.28
2018-12-17T10:54:55.000Z,101054.78
2018-12-17T10:57:22.448Z,101055.72
2018-12-17T10:59:49.912Z,101055.83
2018-12-17T11:02:19.345Z,101054.04
2018-12-17T11:04:48.709Z,101056.31
2018-12-17T11:07:16.187Z,101056.06
2018-12-17T11:09:43.613Z,101062.27
2018-12-17T11:12:11.018Z,101067.85
2018-12-17T11:14:38.445Z,101065.37
2018-12-17T11:17:05.917Z,101062.41
2018-12-17T11:19:33.557Z,101065.26
2018-12-17T11:22:01.018Z,101067.76
2018-12-17T11:24:28.492Z,101062.97
2018-12-17T11:26:55.965Z,101064.77
2018-12-17T11:29:23.383Z,101067.13
2018-12-17T11:31:50.833Z,101061.45
2018-12-17T11:34:18.318Z,101067.99
2018-12-17T11:36:45.757Z,101066.69
2018-12-17T11:39:13.225Z,101063.94
2018-12-17T11:41:40.656Z,101067.52
2018-12-17T11:44:08.153Z,101067.61
2018-12-17T11:46:35.590Z,101066.69
2018-12-17T11:49:02.997Z,101068.21
2018-12-17T11:51:30.448Z,101065.97
2018-12-17T11:53:57.965Z,101063.35
2018-12-17T11:56:29.320Z,101062.52
2018-12-17T11:58:56.777Z,101065.48
2018-12-17T12:01:24.233Z,101066.19
2018-12-17T12:03:51.708Z,101063.12
2018-12-17T12:06:19.139Z,101065.73
2018-12-17T12:08:46.607Z,101064.19
2018-12-17T12:11:14.046Z,101074.77
2018-12-17T12:13:41.513Z,101069.66
2018-12-17T12:16:09.064Z,101075.73
2018-12-17T12:18:36.564Z,101073.11
2018-12-17T12:21:04.103Z,101077.14
2018-12-17T12:23:31.549Z,101082.28
2018-12-17T12:25:59.023Z,101093.83
2018-12-17T12:28:26.557Z,101094.29
2018-12-17T12:31:00.333Z,101088.47
2018-12-17T12:33:23.534Z,101092.52
2018-12-17T12:35:50.997Z,101091.31
2018-12-17T12:38:18.465Z,101094.05
2018-12-17T12:40:45.886Z,101100.49
2018-12-17T12:43:13.348Z,101103.80
2018-12-17T12:45:40.805Z,101105.74
2018-12-17T12:48:08.278Z,101096.19
2018-12-17T12:50:35.732Z,101105.36
2018-12-17T12:53:03.171Z,101099.05
2018-12-17T12:55:30.756Z,101107.40
2018-12-17T12:58:03.646Z,101111.20
2018-12-17T13:00:27.837Z,101115.72
2018-12-17T13:02:55.262Z,101113.69
2018-12-17T13:05:22.721Z,101128.96
2018-12-17T13:07:50.180Z,101126.80
2018-12-17T13:10:17.752Z,101132.75
2018-12-17T13:12:45.231Z,101132.75
2018-12-17T13:15:12.746Z,101141.23
2018-12-17T13:17:40.177Z,101132.88
2018-12-17T13:20:07.660Z,101144.55
2018-12-17T13:22:35.138Z,101142.41
2018-12-17T13:25:02.618Z,101133.13
2018-12-17T13:27:30.144Z,101148.25
2018-12-17T13:29:57.612Z,101154.42
2018-12-17T13:32:25.021Z,101154.66
2018-12-17T13:34:52.505Z,101153.58
2018-12-17T13:37:19.939Z,101163.01
2018-12-17T13:39:47.417Z,101163.84
2018-12-17T13:42:14.891Z,101173.48
2018-12-17T13:44:42.305Z,101174.80
2018-12-17T13:47:09.808Z,101185.72
2018-12-17T13:49:37.265Z,101191.69
2018-12-17T13:52:10.520Z,101189.07
2018-12-17T13:54:38.018Z,101194.79
2018-12-17T13:57:05.568Z,101198.12
2018-12-17T13:59:32.995Z,101208.25
2018-12-17T14:02:00.409Z,101208.82
2018-12-17T14:04:27.837Z,101207.27
2018-12-17T14:06:55.354Z,101220.70
2018-12-17T14:09:22.801Z,101223.11
2018-12-17T14:11:50.256Z,101222.73
2018-12-17T14:14:17.776Z,101229.27
2018-12-17T14:16:50.727Z,101237.61
2018-12-17T14:19:20.094Z,101236.30
2018-12-17T14:21:57.364Z,101239.75
2018-12-17T14:24:24.838Z,101241.89
2018-12-17T14:26:52.328Z,101257.13
2018-12-17T14:29:19.737Z,101253.32
2018-12-17T14:31:47.381Z,101261.53
2018-12-17T14:34:14.834Z,101258.08
2018-12-17T14:36:42.255Z,101262.58
2018-12-17T14:39:10.040Z,101275.42
2018-12-17T14:41:37.493Z,101277.81
2018-12-17T14:44:10.613Z,101283.63
2018-12-17T14:46:43.700Z,101277.30
2018-12-17T14:49:11.236Z,101283.49
2018-12-17T14:51:38.721Z,101282.66
2018-12-17T14:54:06.149Z,101286.94
2018-12-17T14:56:33.609Z,101292.66
2018-12-17T14:59:01.087Z,101292.05
2018-12-17T15:01:28.555Z,101293.27
2018-12-17T15:03:56.051Z,101300.16
2018-12-17T15:06:23.541Z,101303.61
2018-12-17T15:08:51.010Z,101304.92
2018-12-17T15:11:18.477Z,101313.86
2018-12-17T15:13:46.017Z,101324.08
2018-12-17T15:16:13.478Z,101316.92
2018-12-17T15:18:40.924Z,101326.09
2018-12-17T15:21:08.400Z,101330.14
2018-12-17T15:23:35.858Z,101330.62
2018-12-17T15:26:03.378Z,101336.21
2018-12-17T15:28:30.996Z,101337.88
2018-12-17T15:30:58.531Z,101339.44
2018-12-17T15:33:25.955Z,101337.17
2018-12-17T15:35:53.437Z,101351.13
2018-12-17T15:38:20.908Z,101355.89
2018-12-17T15:40:48.331Z,101352.31
2018-12-17T15:43:15.773Z,101351.84
2018-12-17T15:45:43.197Z,101366.23
2018-12-17T15:48:10.728Z,101368.77
2018-12-17T15:50:38.148Z,101369.59
2018-12-17T15:53:05.583Z,101376.71
2018-12-17T15:55:33.009Z,101383.73
2018-12-17T15:58:00.457Z,101388.88
2018-12-17T16:00:27.920Z,101389.11
2018-12-17T16:02:55.342Z,101390.55
2018-12-17T16:05:22.834Z,101400.81
2018-12-17T16:07:50.252Z,101397.97
2018-12-17T16:10:17.738Z,101400.72
2018-12-17T16:12:45.294Z,101398.94
2018-12-17T16:15:12.721Z,101399.06
2018-12-17T16:17:40.271Z,101411.55
2018-12-17T16:20:07.740Z,101415.12
2018-12-17T16:22:35.235Z,101417.27
2018-12-17T16:25:02.920Z,101424.42
2018-12-17T16:27:30.333Z,101422.90
2018-12-17T16:29:57.814Z,101422.56
2018-12-17T16:32:25.357Z,101427.31
2018-12-17T16:34:52.831Z,101433.65
2018-12-17T16:37:20.242Z,101436.97
2018-12-17T16:39:47.728Z,101441.50
2018-12-17T16:42:15.180Z,101446.95
2018-12-17T16:44:42.659Z,101453.15
2018-12-17T16:47:10.143Z,101454.07
2018-12-17T16:49:37.765Z,101463.23
2018-12-17T16:52:05.222Z,101462.53
2018-12-17T16:54:32.695Z,101464.20
2018-12-17T16:57:00.229Z,101469.08
2018-12-17T16:59:27.693Z,101470.17
2018-12-17T17:01:55.171Z,101473.23
2018-12-17T17:04:22.586Z,101470.17
2018-12-17T17:06:50.031Z,101466.12
2018-12-17T17:09:17.540Z,101470.62
2018-12-17T17:11:45.081Z,101474.55
2018-12-17T17:14:12.653Z,101474.67
2018-12-17T17:16:40.220Z,101476.95
2018-12-17T17:19:07.649Z,101481.71
2018-12-17T17:21:35.447Z,101484.94
2018-12-17T17:24:02.878Z,101488.73
2018-12-17T17:26:30.347Z,101489.48
2018-12-17T17:28:57.815Z,101484.02
2018-12-17T17:31:25.261Z,101486.43
2018-12-17T17:33:52.749Z,101476.66
2018-12-17T17:36:20.464Z,101485.26
2018-12-17T17:38:47.900Z,101498.00
2018-12-17T17:41:15.319Z,101501.55
2018-12-17T17:43:42.882Z,101504.86
2018-12-17T17:46:10.311Z,101504.30
2018-12-17T17:48:37.742Z,101510.15
2018-12-17T17:51:05.323Z,101517.89
2018-12-17T17:53:32.765Z,101514.43
2018-12-17T17:56:00.199Z,101521.94
2018-12-17T17:58:27.805Z,101528.13
2018-12-17T18:00:55.262Z,101526.44
2018-12-17T18:03:22.701Z,101528.44
2018-12-17T18:05:50.179Z,101530.70
2018-12-17T18:08:17.624Z,101534.97
2018-12-17T18:10:45.181Z,101536.02
2018-12-17T18:13:12.625Z,101542.03
2018-12-17T18:15:41.857Z,101550.58
2018-12-17T18:18:09.636Z,101555.55
2018-12-17T18:20:37.169Z,101562.22
2018-12-17T18:23:04.593Z,101569.33
2018-12-17T18:27:06.788Z,101572.27
2018-12-17T18:29:34.329Z,101568.20
2018-12-17T18:32:01.808Z,101576.11
2018-12-17T18:34:29.260Z,101577.36
2018-12-17T18:36:56.722Z,101581.61
2018-12-17T18:39:24.511Z,101581.89
2018-12-17T18:41:51.960Z,101586.89
2018-12-17T18:44:19.370Z,101589.75
2018-12-17T18:46:46.798Z,101590.02
2018-12-17T18:49:14.239Z,101592.55
2018-12-17T18:51:41.790Z,101601.39
2018-12-17T18:54:09.229Z,101601.75
2018-12-17T18:56:36.687Z,101612.34
2018-12-17T18:59:04.101Z,101607.94
2018-12-17T19:01:31.711Z,101613.05
2018-12-17T19:03:59.133Z,101617.52
2018-12-17T19:06:26.617Z,101620.92
2018-12-17T19:08:54.087Z,101619.68
2018-12-17T19:11:21.549Z,101625.75
2018-12-17T19:13:49.104Z,101618.84
2018-12-17T19:16:16.535Z,101622.35
2018-12-17T19:18:43.970Z,101625.73
2018-12-17T19:21:11.386Z,101621.45
2018-12-17T19:23:38.928Z,101620.77
2018-12-17T19:26:06.385Z,101626.76
2018-12-17T19:28:33.814Z,101627.80
2018-12-17T19:31:01.284Z,101634.34
2018-12-17T19:33:28.756Z,101639.10
2018-12-17T19:35:56.193Z,101642.91
2018-12-17T19:38:23.636Z,101646.75
2018-12-17T19:40:51.059Z,101659.02
2018-12-17T19:43:18.581Z,101656.55
2018-12-17T19:45:46.140Z,101656.43
2018-12-17T19:48:13.583Z,101667.77
2018-12-17T19:50:41.044Z,101665.23
2018-12-17T19:53:08.478Z,101668.61
2018-12-17T19:55:35.896Z,101665.98
2018-12-17T19:58:03.429Z,101667.17
2018-12-17T20:00:30.871Z,101670.06
2018-12-17T20:02:58.299Z,101664.36
2018-12-17T20:05:25.791Z,101671.10
2018-12-17T20:07:53.225Z,101669.44
2018-12-17T20:10:23.513Z,101677.97
2018-12-17T20:12:50.948Z,101675.83
2018-12-17T20:15:18.526Z,101673.21
2018-12-17T20:17:45.967Z,101680.59
2018-12-17T20:20:13.512Z,101681.78
2018-12-17T20:22:40.947Z,101683.48
2018-12-17T20:25:08.373Z,101684.41
2018-12-17T20:27:35.890Z,101686.81
2018-12-17T20:30:05.041Z,101685.30
2018-12-17T20:32:32.462Z,101685.94
2018-12-17T20:34:59.893Z,101684.98
2018-12-17T20:37:27.333Z,101688.83
2018-12-17T20:39:54.801Z,101695.58
2018-12-17T20:42:22.244Z,101688.28
2018-12-17T20:44:49.657Z,101691.10
2018-12-17T20:47:17.099Z,101690.03
2018-12-17T20:49:44.527Z,101691.16
2018-12-17T20:52:11.949Z,101699.20
2018-12-17T20:54:39.433Z,101700.27
2018-12-17T20:57:06.918Z,101708.05
2018-12-17T20:59:34.359Z,101699.09
2018-12-17T21:02:01.808Z,101708.09
2018-12-17T21:04:29.287Z,101707.45
2018-12-17T21:06:56.720Z,101714.83
2018-12-17T21:09:24.147Z,101711.74
2018-12-17T21:11:52.642Z,101715.86
2018-12-17T21:14:23.582Z,101714.75
2018-12-17T21:16:49.785Z,101726.53
2018-12-17T21:19:17.309Z,101723.20
2018-12-17T21:21:44.736Z,101721.13
2018-12-17T21:24:12.152Z,101722.16
2018-12-17T21:26:39.587Z,101718.71
2018-12-17T21:29:07.036Z,101719.86
2018-12-17T21:31:34.449Z,101726.04
2018-12-17T21:34:01.900Z,101719.30
2018-12-17T21:36:29.306Z,101719.41
2018-12-17T21:38:56.751Z,101721.20
2018-12-17T21:41:24.189Z,101729.05
2018-12-17T21:43:51.622Z,101727.81
2018-12-17T21:46:19.109Z,101733.92
2018-12-17T21:48:46.539Z,101728.73
2018-12-17T21:51:14.033Z,101730.33
2018-12-17T21:53:41.455Z,101728.55
2018-12-17T21:56:08.934Z,101729.85
2018-12-17T21:58:36.411Z,101732.75
2018-12-17T22:01:03.837Z,101741.59
2018-12-17T22:03:31.415Z,101737.20
2018-12-17T22:05:58.887Z,101747.23
2018-12-17T22:08:26.326Z,101745.45
2018-12-17T22:10:53.777Z,101749.17
2018-12-17T22:13:21.240Z,101746.80
2018-12-17T22:15:48.793Z,101751.48
2018-12-17T22:18:16.268Z,101754.27
2018-12-17T22:20:43.703Z,101748.63
2018-12-17T22:23:11.126Z,101755.34
2018-12-17T22:25:38.557Z,101754.88
2018-12-17T22:28:05.995Z,101751.69
2018-12-17T22:30:33.421Z,101748.13
2018-12-17T22:33:00.889Z,101757.01
2018-12-17T22:35:28.358Z,101756.42
2018-12-17T22:37:55.801Z,101761.57
2018-12-17T22:40:23.229Z,101762.92
2018-12-17T22:42:50.687Z,101769.11
2018-12-17T22:45:18.169Z,101766.02
2018-12-17T22:47:45.637Z,101773.80
2018-12-17T22:50:13.105Z,101773.05
2018-12-17T22:52:40.536Z,101768.84
2018-12-17T22:55:08.124Z,101786.65
2018-12-17T22:57:35.549Z,101777.09
2018-12-17T23:00:03.338Z,101775.06
2018-12-17T23:02:30.777Z,101782.56
2018-12-17T23:04:58.190Z,101776.37
2018-12-17T23:07:25.872Z,101779.27
2018-12-17T23:10:05.354Z,101773.44
2018-12-17T23:12:44.796Z,101771.66
2018-12-17T23:15:24.351Z,101778.48
2018-12-17T23:17:51.955Z,101773.52
2018-12-17T23:20:19.537Z,101774.16
2018-12-17T23:22:46.957Z,101770.75
2018-12-17T23:25:14.390Z,101766.73
2018-12-17T23:27:47.372Z,101769.35
2018-12-17T23:30:14.920Z,101763.28
2018-12-17T23:32:42.347Z,101769.08
2018-12-17T23:35:09.764Z,101770.02
2018-12-17T23:37:37.203Z,101762.17
2018-12-17T23:40:05.184Z,101765.63
2018-12-17T23:42:32.631Z,101764.67
2018-12-17T23:45:00.063Z,101764.11
2018-12-17T23:47:27.505Z,101769.91
2018-12-17T23:49:54.968Z,101770.02
2018-12-17T23:52:22.415Z,101767.41
2018-12-17T23:54:49.829Z,101770.11
2018-12-17T23:57:17.241Z,101773.41
2018-12-17T23:59:44.688Z,101768.91
